sensor_id;sensor_type;location;lat;lon;timestamp;pressure;altitude;pressure_sealevel;temperature;humidity
35121;BME280;21297;52.008;4.576;2024-02-23T00:01:15;44912.84;;;-143.47;72.13
35121;BME280;21297;52.008;4.576;2024-02-23T00:04:00;44912.84;;;-143.47;72.12
35121;BME280;21297;52.008;4.576;2024-02-23T00:06:47;44885.34;;;-143.47;71.06
35121;BME280;21297;52.008;4.576;2024-02-23T00:09:33;44916.78;;;-143.47;71.49
35121;BME280;21297;52.008;4.576;2024-02-23T00:12:19;44891.25;;;-143.47;70.56
35121;BME280;21297;52.008;4.576;2024-02-23T00:15:04;44924.63;;;-143.47;69.79
35121;BME280;21297;52.008;4.576;2024-02-23T00:17:50;44932.50;;;-143.47;69.76
35121;BME280;21297;52.008;4.576;2024-02-23T00:20:36;44924.63;;;-143.47;69.67
35121;BME280;21297;52.008;4.576;2024-02-23T00:23:21;44936.41;;;-143.47;70.18
35121;BME280;21297;52.008;4.576;2024-02-23T00:26:07;44924.63;;;-143.47;70.96
35121;BME280;21297;52.008;4.576;2024-02-23T00:28:52;44910.88;;;-143.47;71.00
35121;BME280;21297;52.008;4.576;2024-02-23T00:31:38;44936.41;;;-143.47;72.38
35121;BME280;21297;52.008;4.576;2024-02-23T00:34:27;44934.47;;;-143.47;72.83
35121;BME280;21297;52.008;4.576;2024-02-23T00:37:12;44920.72;;;-143.47;72.20
35121;BME280;21297;52.008;4.576;2024-02-23T00:39:58;44918.75;;;-143.47;72.40
35121;BME280;21297;52.008;4.576;2024-02-23T00:42:43;44936.41;;;-143.47;74.38
35121;BME280;21297;52.008;4.576;2024-02-23T00:45:29;44948.22;;;-143.47;77.03
35121;BME280;21297;52.008;4.576;2024-02-23T00:48:14;44999.28;;;-143.47;79.38
35121;BME280;21297;52.008;4.576;2024-02-23T00:51:03;45046.44;;;-143.47;83.59
35121;BME280;21297;52.008;4.576;2024-02-23T00:53:49;45181.97;;;-143.47;90.49
35121;BME280;21297;52.008;4.576;2024-02-23T00:56:35;45270.38;;;-143.47;93.06
35121;BME280;21297;52.008;4.576;2024-02-23T00:59:20;45270.38;;;-143.47;93.29
35121;BME280;21297;52.008;4.576;2024-02-23T01:02:06;45246.81;;;-143.47;92.13
35121;BME280;21297;52.008;4.576;2024-02-23T01:04:51;45238.97;;;-143.47;91.88
35121;BME280;21297;52.008;4.576;2024-02-23T01:07:42;45154.47;;;-143.47;90.08
35121;BME280;21297;52.008;4.576;2024-02-23T01:10:27;45113.22;;;-143.47;87.87
35121;BME280;21297;52.008;4.576;2024-02-23T01:13:13;45062.16;;;-143.47;87.04
35121;BME280;21297;52.008;4.576;2024-02-23T01:15:59;45091.63;;;-143.47;86.43
35121;BME280;21297;52.008;4.576;2024-02-23T01:18:44;45005.19;;;-143.47;82.48
35121;BME280;21297;52.008;4.576;2024-02-23T01:21:30;44987.50;;;-143.47;81.42
35121;BME280;21297;52.008;4.576;2024-02-23T01:24:15;44971.78;;;-143.47;80.39
35121;BME280;21297;52.008;4.576;2024-02-23T01:27:01;44995.34;;;-143.47;79.93
35121;BME280;21297;52.008;4.576;2024-02-23T01:29:47;44973.75;;;-143.47;78.73
35121;BME280;21297;52.008;4.576;2024-02-23T01:32:32;44954.09;;;-143.47;79.30
35121;BME280;21297;52.008;4.576;2024-02-23T01:35:18;44967.84;;;-143.47;79.01
35121;BME280;21297;52.008;4.576;2024-02-23T01:38:03;44950.16;;;-143.47;77.52
35121;BME280;21297;52.008;4.576;2024-02-23T01:40:49;44956.06;;;-143.47;76.19
35121;BME280;21297;52.008;4.576;2024-02-23T01:43:34;44948.22;;;-143.47;76.29
35121;BME280;21297;52.008;4.576;2024-02-23T01:46:20;44958.03;;;-143.47;75.84
35121;BME280;21297;52.008;4.576;2024-02-23T01:49:06;44940.34;;;-143.47;75.28
35121;BME280;21297;52.008;4.576;2024-02-23T01:51:53;44950.16;;;-143.47;75.55
35121;BME280;21297;52.008;4.576;2024-02-23T01:54:38;44975.72;;;-143.47;74.97
35121;BME280;21297;52.008;4.576;2024-02-23T01:57:24;44938.38;;;-143.47;74.62
35121;BME280;21297;52.008;4.576;2024-02-23T02:00:10;44963.94;;;-143.47;74.78
35121;BME280;21297;52.008;4.576;2024-02-23T02:02:58;44967.84;;;-143.47;75.65
35121;BME280;21297;52.008;4.576;2024-02-23T02:05:44;44928.56;;;-143.47;74.94
35121;BME280;21297;52.008;4.576;2024-02-23T02:08:30;44936.41;;;-143.47;74.26
35121;BME280;21297;52.008;4.576;2024-02-23T02:11:16;44934.47;;;-143.47;73.70
35121;BME280;21297;52.008;4.576;2024-02-23T02:14:01;44899.09;;;-143.47;72.93
35121;BME280;21297;52.008;4.576;2024-02-23T02:16:47;44944.28;;;-143.47;72.34
35121;BME280;21297;52.008;4.576;2024-02-23T02:19:32;44920.72;;;-143.47;71.32
35121;BME280;21297;52.008;4.576;2024-02-23T02:22:18;44905.00;;;-143.47;71.94
35121;BME280;21297;52.008;4.576;2024-02-23T02:25:04;44944.28;;;-143.47;72.60
35121;BME280;21297;52.008;4.576;2024-02-23T02:27:49;44942.31;;;-143.47;72.76
35121;BME280;21297;52.008;4.576;2024-02-23T02:30:35;44903.03;;;-143.47;71.90
35121;BME280;21297;52.008;4.576;2024-02-23T02:33:21;44906.97;;;-143.47;71.60
35121;BME280;21297;52.008;4.576;2024-02-23T02:36:07;44924.63;;;-143.47;71.95
35121;BME280;21297;52.008;4.576;2024-02-23T02:38:52;44922.66;;;-143.47;74.10
35121;BME280;21297;52.008;4.576;2024-02-23T02:41:38;44973.75;;;-143.47;76.83
35121;BME280;21297;52.008;4.576;2024-02-23T02:44:23;44963.94;;;-143.47;78.38
35121;BME280;21297;52.008;4.576;2024-02-23T02:47:09;44961.97;;;-143.47;78.21
35121;BME280;21297;52.008;4.576;2024-02-23T02:49:54;44985.53;;;-143.47;78.20
35121;BME280;21297;52.008;4.576;2024-02-23T02:52:40;44983.56;;;-143.47;77.37
35121;BME280;21297;52.008;4.576;2024-02-23T02:55:25;44940.34;;;-143.47;78.06
35121;BME280;21297;52.008;4.576;2024-02-23T02:58:11;44940.34;;;-143.47;79.48
35121;BME280;21297;52.008;4.576;2024-02-23T03:00:56;44965.88;;;-143.47;79.90
35121;BME280;21297;52.008;4.576;2024-02-23T03:03:42;44979.63;;;-143.47;79.35
35121;BME280;21297;52.008;4.576;2024-02-23T03:06:27;44983.56;;;-143.47;79.62
35121;BME280;21297;52.008;4.576;2024-02-23T03:09:13;44967.84;;;-143.47;79.72
35121;BME280;21297;52.008;4.576;2024-02-23T03:11:58;44969.81;;;-143.47;80.30
35121;BME280;21297;52.008;4.576;2024-02-23T03:14:44;44971.78;;;-143.47;80.73
35121;BME280;21297;52.008;4.576;2024-02-23T03:17:30;45007.16;;;-143.47;81.26
35121;BME280;21297;52.008;4.576;2024-02-23T03:20:15;45018.94;;;-143.47;81.26
35121;BME280;21297;52.008;4.576;2024-02-23T03:23:01;45009.09;;;-143.47;81.88
35121;BME280;21297;52.008;4.576;2024-02-23T03:25:48;45003.22;;;-143.47;82.51
35121;BME280;21297;52.008;4.576;2024-02-23T03:28:34;44987.50;;;-143.47;82.75
35121;BME280;21297;52.008;4.576;2024-02-23T03:31:20;45011.06;;;-143.47;82.58
35121;BME280;21297;52.008;4.576;2024-02-23T03:34:06;45003.22;;;-143.47;83.46
35121;BME280;21297;52.008;4.576;2024-02-23T03:36:51;45046.44;;;-143.47;83.73
35121;BME280;21297;52.008;4.576;2024-02-23T03:39:37;45050.34;;;-143.47;84.41
35121;BME280;21297;52.008;4.576;2024-02-23T03:42:23;45054.28;;;-143.47;85.09
35121;BME280;21297;52.008;4.576;2024-02-23T03:45:09;45058.22;;;-143.47;84.95
35121;BME280;21297;52.008;4.576;2024-02-23T03:47:54;45034.66;;;-143.47;85.17
35121;BME280;21297;52.008;4.576;2024-02-23T03:50:40;45064.13;;;-143.47;85.11
35121;BME280;21297;52.008;4.576;2024-02-23T03:53:25;45085.72;;;-143.47;85.25
35121;BME280;21297;52.008;4.576;2024-02-23T03:56:11;45071.97;;;-143.47;86.22
35121;BME280;21297;52.008;4.576;2024-02-23T03:58:57;45093.59;;;-143.47;87.47
35121;BME280;21297;52.008;4.576;2024-02-23T04:01:42;45097.50;;;-143.47;88.36
35121;BME280;21297;52.008;4.576;2024-02-23T04:04:29;45144.66;;;-143.47;88.72
35121;BME280;21297;52.008;4.576;2024-02-23T04:07:15;45115.19;;;-143.47;89.19
35121;BME280;21297;52.008;4.576;2024-02-23T04:10:01;45103.41;;;-143.47;88.85
35121;BME280;21297;52.008;4.576;2024-02-23T04:12:46;45128.94;;;-143.47;88.88
35121;BME280;21297;52.008;4.576;2024-02-23T04:15:32;45138.75;;;-143.47;89.08
35121;BME280;21297;52.008;4.576;2024-02-23T04:18:18;45125.00;;;-143.47;89.08
35121;BME280;21297;52.008;4.576;2024-02-23T04:21:03;45125.00;;;-143.47;89.00
35121;BME280;21297;52.008;4.576;2024-02-23T04:23:49;45101.44;;;-143.47;88.50
35121;BME280;21297;52.008;4.576;2024-02-23T04:26:34;45109.28;;;-143.47;88.58
35121;BME280;21297;52.008;4.576;2024-02-23T04:29:20;45115.19;;;-143.47;88.33
35121;BME280;21297;52.008;4.576;2024-02-23T04:32:06;45109.28;;;-143.47;88.03
35121;BME280;21297;52.008;4.576;2024-02-23T04:34:51;45070.00;;;-143.47;87.85
35121;BME280;21297;52.008;4.576;2024-02-23T04:37:37;45107.34;;;-143.47;87.57
35121;BME280;21297;52.008;4.576;2024-02-23T04:40:23;45101.44;;;-143.47;87.14
35121;BME280;21297;52.008;4.576;2024-02-23T04:43:08;45054.28;;;-143.47;86.78
35121;BME280;21297;52.008;4.576;2024-02-23T04:45:54;45054.28;;;-143.47;86.42
35121;BME280;21297;52.008;4.576;2024-02-23T04:48:39;45077.88;;;-143.47;85.71
35121;BME280;21297;52.008;4.576;2024-02-23T04:51:25;45054.28;;;-143.47;85.70
35121;BME280;21297;52.008;4.576;2024-02-23T04:54:10;45042.50;;;-143.47;85.49
35121;BME280;21297;52.008;4.576;2024-02-23T04:56:56;45062.16;;;-143.47;85.10
35121;BME280;21297;52.008;4.576;2024-02-23T04:59:41;45034.66;;;-143.47;83.68
35121;BME280;21297;52.008;4.576;2024-02-23T05:02:28;45007.16;;;-143.47;83.22
35121;BME280;21297;52.008;4.576;2024-02-23T05:05:19;44979.63;;;-143.47;83.29
35121;BME280;21297;52.008;4.576;2024-02-23T05:08:04;45007.16;;;-143.47;84.05
35121;BME280;21297;52.008;4.576;2024-02-23T05:10:50;45016.97;;;-143.47;84.71
35121;BME280;21297;52.008;4.576;2024-02-23T05:13:36;45038.56;;;-143.47;85.22
35121;BME280;21297;52.008;4.576;2024-02-23T05:16:23;45062.16;;;-143.47;86.40
35121;BME280;21297;52.008;4.576;2024-02-23T05:19:08;45070.00;;;-143.47;87.05
35121;BME280;21297;52.008;4.576;2024-02-23T05:21:54;45099.47;;;-143.47;88.52
35121;BME280;21297;52.008;4.576;2024-02-23T05:24:39;45125.00;;;-143.47;88.56
35121;BME280;21297;52.008;4.576;2024-02-23T05:27:25;45125.00;;;-143.47;88.24
35121;BME280;21297;52.008;4.576;2024-02-23T05:30:12;45115.19;;;-143.47;87.98
35121;BME280;21297;52.008;4.576;2024-02-23T05:32:58;45079.81;;;-143.47;87.69
35121;BME280;21297;52.008;4.576;2024-02-23T05:35:44;45070.00;;;-143.47;87.31
35121;BME280;21297;52.008;4.576;2024-02-23T05:38:30;45093.59;;;-143.47;86.71
35121;BME280;21297;52.008;4.576;2024-02-23T05:41:16;45075.91;;;-143.47;85.83
35121;BME280;21297;52.008;4.576;2024-02-23T05:44:03;45058.22;;;-143.47;85.77
35121;BME280;21297;52.008;4.576;2024-02-23T05:46:50;45030.72;;;-143.47;85.59
35121;BME280;21297;52.008;4.576;2024-02-23T05:49:36;45042.50;;;-143.47;85.47
35121;BME280;21297;52.008;4.576;2024-02-23T05:52:21;45040.53;;;-143.47;85.09
35121;BME280;21297;52.008;4.576;2024-02-23T05:55:07;45007.16;;;-143.47;84.53
35121;BME280;21297;52.008;4.576;2024-02-23T05:57:53;45034.66;;;-143.47;84.37
35121;BME280;21297;52.008;4.576;2024-02-23T06:00:38;45030.72;;;-143.47;84.23
35121;BME280;21297;52.008;4.576;2024-02-23T06:03:24;45011.06;;;-143.47;84.70
35121;BME280;21297;52.008;4.576;2024-02-23T06:06:10;45052.31;;;-143.47;84.55
35121;BME280;21297;52.008;4.576;2024-02-23T06:08:56;45022.84;;;-143.47;84.19
35121;BME280;21297;52.008;4.576;2024-02-23T06:11:41;45016.97;;;-143.47;84.37
35121;BME280;21297;52.008;4.576;2024-02-23T06:14:27;45024.81;;;-143.47;83.61
35121;BME280;21297;52.008;4.576;2024-02-23T06:17:12;45015.00;;;-143.47;83.59
35121;BME280;21297;52.008;4.576;2024-02-23T06:19:58;45018.94;;;-143.47;83.56
35121;BME280;21297;52.008;4.576;2024-02-23T06:22:44;44993.38;;;-143.47;83.14
35121;BME280;21297;52.008;4.576;2024-02-23T06:25:29;45007.16;;;-143.47;82.77
35121;BME280;21297;52.008;4.576;2024-02-23T06:28:16;45005.19;;;-143.47;82.10
35121;BME280;21297;52.008;4.576;2024-02-23T06:31:02;44999.28;;;-143.47;81.53
35121;BME280;21297;52.008;4.576;2024-02-23T06:33:49;44995.34;;;-143.47;81.82
35121;BME280;21297;52.008;4.576;2024-02-23T06:36:36;45015.00;;;-143.47;81.57
35121;BME280;21297;52.008;4.576;2024-02-23T06:39:22;45034.66;;;-143.47;82.46
35121;BME280;21297;52.008;4.576;2024-02-23T06:42:08;45007.16;;;-143.47;82.20
35121;BME280;21297;52.008;4.576;2024-02-23T06:44:54;45007.16;;;-143.47;82.25
35121;BME280;21297;52.008;4.576;2024-02-23T06:47:39;45003.22;;;-143.47;82.01
35121;BME280;21297;52.008;4.576;2024-02-23T06:50:25;45001.25;;;-143.47;80.92
35121;BME280;21297;52.008;4.576;2024-02-23T06:53:11;44979.63;;;-143.47;81.53
35121;BME280;21297;52.008;4.576;2024-02-23T06:55:56;44991.44;;;-143.47;81.11
35121;BME280;21297;52.008;4.576;2024-02-23T06:58:44;44961.97;;;-143.47;81.00
35121;BME280;21297;52.008;4.576;2024-02-23T07:01:29;44991.44;;;-143.47;80.20
35121;BME280;21297;52.008;4.576;2024-02-23T07:04:16;44960.00;;;-143.47;79.54
35121;BME280;21297;52.008;4.576;2024-02-23T07:07:02;44960.00;;;-143.47;79.42
35121;BME280;21297;52.008;4.576;2024-02-23T07:09:52;44977.69;;;-143.47;79.78
35121;BME280;21297;52.008;4.576;2024-02-23T07:12:38;45022.84;;;-143.47;80.14
35121;BME280;21297;52.008;4.576;2024-02-23T07:15:24;44975.72;;;-143.47;80.27
35121;BME280;21297;52.008;4.576;2024-02-23T07:18:11;44979.63;;;-143.47;80.49
35121;BME280;21297;52.008;4.576;2024-02-23T07:20:56;45013.03;;;-143.47;80.21
35121;BME280;21297;52.008;4.576;2024-02-23T07:23:42;44979.63;;;-143.47;79.61
35121;BME280;21297;52.008;4.576;2024-02-23T07:26:27;44971.78;;;-143.47;80.16
35121;BME280;21297;52.008;4.576;2024-02-23T07:29:15;44991.44;;;-143.47;80.94
35121;BME280;21297;52.008;4.576;2024-02-23T07:32:01;45007.16;;;-143.47;80.72
35121;BME280;21297;52.008;4.576;2024-02-23T07:34:47;45016.97;;;-143.47;82.46
35121;BME280;21297;52.008;4.576;2024-02-23T07:37:32;45011.06;;;-143.47;82.33
35121;BME280;21297;52.008;4.576;2024-02-23T07:40:18;45007.16;;;-143.47;83.14
35121;BME280;21297;52.008;4.576;2024-02-23T07:43:03;45050.34;;;-143.47;85.46
35121;BME280;21297;52.008;4.576;2024-02-23T07:45:50;45146.63;;;-143.47;89.01
35121;BME280;21297;52.008;4.576;2024-02-23T07:48:35;45217.34;;;-143.47;91.66
35121;BME280;21297;52.008;4.576;2024-02-23T07:51:21;45331.28;;;-143.47;94.71
35121;BME280;21297;52.008;4.576;2024-02-23T07:54:06;45360.75;;;-143.47;95.46
35121;BME280;21297;52.008;4.576;2024-02-23T07:56:52;45415.78;;;-143.47;96.43
35121;BME280;21297;52.008;4.576;2024-02-23T07:59:37;45519.91;;;-143.47;97.85
35121;BME280;21297;52.008;4.576;2024-02-23T08:02:23;45600.47;;;-143.47;99.58
35121;BME280;21297;52.008;4.576;2024-02-23T08:05:09;45726.19;;;-143.47;100.00
35121;BME280;21297;52.008;4.576;2024-02-23T08:07:55;45761.56;;;-143.47;100.00
35121;BME280;21297;52.008;4.576;2024-02-23T08:10:41;45830.34;;;-143.47;100.00
35121;BME280;21297;52.008;4.576;2024-02-23T08:13:26;45840.16;;;-143.47;100.00
35121;BME280;21297;52.008;4.576;2024-02-23T08:16:12;45891.25;;;-143.47;100.00
35121;BME280;21297;52.008;4.576;2024-02-23T08:18:57;45832.31;;;-143.47;100.00
35121;BME280;21297;52.008;4.576;2024-02-23T08:21:43;45912.88;;;-143.47;100.00
35121;BME280;21297;52.008;4.576;2024-02-23T08:24:29;45881.44;;;-143.47;100.00
35121;BME280;21297;52.008;4.576;2024-02-23T08:27:14;45965.91;;;-143.47;100.00
35121;BME280;21297;52.008;4.576;2024-02-23T08:30:00;45983.59;;;-143.47;100.00
35121;BME280;21297;52.008;4.576;2024-02-23T08:32:46;45975.75;;;-143.47;100.00
35121;BME280;21297;52.008;4.576;2024-02-23T08:35:31;45906.97;;;-143.47;100.00
35121;BME280;21297;52.008;4.576;2024-02-23T08:38:18;46028.78;;;-143.47;100.00
35121;BME280;21297;52.008;4.576;2024-02-23T08:41:04;45967.88;;;-143.47;100.00
35121;BME280;21297;52.008;4.576;2024-02-23T08:43:49;46111.31;;;-143.47;100.00
35121;BME280;21297;52.008;4.576;2024-02-23T08:46:35;46101.50;;;-143.47;100.00
35121;BME280;21297;52.008;4.576;2024-02-23T08:49:22;46197.78;;;-143.47;100.00
35121;BME280;21297;52.008;4.576;2024-02-23T08:52:08;46209.56;;;-143.47;100.00
35121;BME280;21297;52.008;4.576;2024-02-23T08:54:53;46176.16;;;-143.47;100.00
35121;BME280;21297;52.008;4.576;2024-02-23T08:57:39;46156.53;;;-143.47;100.00
35121;BME280;21297;52.008;4.576;2024-02-23T09:00:24;46254.78;;;-143.47;100.00
35121;BME280;21297;52.008;4.576;2024-02-23T09:03:10;46140.81;;;-143.47;100.00
35121;BME280;21297;52.008;4.576;2024-02-23T09:05:56;45926.63;;;-143.47;100.00
35121;BME280;21297;52.008;4.576;2024-02-23T09:08:41;45930.56;;;-143.47;100.00
35121;BME280;21297;52.008;4.576;2024-02-23T09:11:27;45895.19;;;-143.47;100.00
35121;BME280;21297;52.008;4.576;2024-02-23T09:14:13;45641.72;;;-143.47;99.40
35121;BME280;21297;52.008;4.576;2024-02-23T09:16:58;45645.66;;;-143.47;99.44
35121;BME280;21297;52.008;4.576;2024-02-23T09:19:44;45582.78;;;-143.47;98.74
35121;BME280;21297;52.008;4.576;2024-02-23T09:22:29;45696.72;;;-143.47;100.00
35121;BME280;21297;52.008;4.576;2024-02-23T09:25:15;45753.72;;;-143.47;100.00
35121;BME280;21297;52.008;4.576;2024-02-23T09:28:01;45810.69;;;-143.47;100.00
35121;BME280;21297;52.008;4.576;2024-02-23T09:30:46;45671.19;;;-143.47;99.85
35121;BME280;21297;52.008;4.576;2024-02-23T09:33:32;45618.13;;;-143.47;99.60
35121;BME280;21297;52.008;4.576;2024-02-23T09:36:17;45629.94;;;-143.47;98.98
35121;BME280;21297;52.008;4.576;2024-02-23T09:39:03;45447.22;;;-143.47;96.72
35121;BME280;21297;52.008;4.576;2024-02-23T09:41:50;45415.78;;;-143.47;96.41
35121;BME280;21297;52.008;4.576;2024-02-23T09:44:36;45409.88;;;-143.47;96.20
35121;BME280;21297;52.008;4.576;2024-02-23T09:47:22;45348.97;;;-143.47;95.11
35121;BME280;21297;52.008;4.576;2024-02-23T09:50:08;45341.13;;;-143.47;94.78
35121;BME280;21297;52.008;4.576;2024-02-23T09:52:54;45268.44;;;-143.47;92.42
35121;BME280;21297;52.008;4.576;2024-02-23T09:55:42;45238.97;;;-143.47;91.92
35121;BME280;21297;52.008;4.576;2024-02-23T09:58:28;45181.97;;;-143.47;90.83
35121;BME280;21297;52.008;4.576;2024-02-23T10:01:15;45097.50;;;-143.47;89.04
35121;BME280;21297;52.008;4.576;2024-02-23T10:04:04;45026.78;;;-143.47;86.45
35121;BME280;21297;52.008;4.576;2024-02-23T10:06:51;45032.69;;;-143.47;85.28
35121;BME280;21297;52.008;4.576;2024-02-23T10:09:37;45066.06;;;-143.47;86.06
35121;BME280;21297;52.008;4.576;2024-02-23T10:12:22;45044.47;;;-143.47;85.50
35121;BME280;21297;52.008;4.576;2024-02-23T10:15:08;44997.31;;;-143.47;85.39
35121;BME280;21297;52.008;4.576;2024-02-23T10:17:54;45022.84;;;-143.47;83.91
35121;BME280;21297;52.008;4.576;2024-02-23T10:20:40;44979.63;;;-143.47;83.04
35121;BME280;21297;52.008;4.576;2024-02-23T10:23:26;44967.84;;;-143.47;81.15
35121;BME280;21297;52.008;4.576;2024-02-23T10:26:11;44965.88;;;-143.47;82.49
35121;BME280;21297;52.008;4.576;2024-02-23T10:28:57;44993.38;;;-143.47;82.32
35121;BME280;21297;52.008;4.576;2024-02-23T10:31:44;44981.59;;;-143.47;80.86
35121;BME280;21297;52.008;4.576;2024-02-23T10:34:32;44954.09;;;-143.47;81.47
35121;BME280;21297;52.008;4.576;2024-02-23T10:37:21;44956.06;;;-143.47;80.39
35121;BME280;21297;52.008;4.576;2024-02-23T10:40:08;44946.25;;;-143.47;78.83
35121;BME280;21297;52.008;4.576;2024-02-23T10:42:56;44958.03;;;-143.47;81.11
35121;BME280;21297;52.008;4.576;2024-02-23T10:45:41;44934.47;;;-143.47;79.58
35121;BME280;21297;52.008;4.576;2024-02-23T10:48:28;44944.28;;;-143.47;77.78
35121;BME280;21297;52.008;4.576;2024-02-23T10:51:14;44920.72;;;-143.47;78.18
35121;BME280;21297;52.008;4.576;2024-02-23T10:53:59;44950.16;;;-143.47;79.86
35121;BME280;21297;52.008;4.576;2024-02-23T10:56:52;44960.00;;;-143.47;80.13
35121;BME280;21297;52.008;4.576;2024-02-23T10:59:38;44938.38;;;-143.47;79.69
35121;BME280;21297;52.008;4.576;2024-02-23T11:02:24;44938.38;;;-143.47;77.92
35121;BME280;21297;52.008;4.576;2024-02-23T11:05:11;44924.63;;;-143.47;78.94
35121;BME280;21297;52.008;4.576;2024-02-23T11:07:58;44922.66;;;-143.47;78.35
35121;BME280;21297;52.008;4.576;2024-02-23T11:10:50;44920.72;;;-143.47;77.67
35121;BME280;21297;52.008;4.576;2024-02-23T11:13:40;44930.53;;;-143.47;77.69
35121;BME280;21297;52.008;4.576;2024-02-23T11:16:25;44922.66;;;-143.47;76.06
35121;BME280;21297;52.008;4.576;2024-02-23T11:19:11;44912.84;;;-143.47;76.69
35121;BME280;21297;52.008;4.576;2024-02-23T11:21:56;44905.00;;;-143.47;76.10
35121;BME280;21297;52.008;4.576;2024-02-23T11:24:44;44916.78;;;-143.47;77.81
35121;BME280;21297;52.008;4.576;2024-02-23T11:27:33;44924.63;;;-143.47;76.15
35121;BME280;21297;52.008;4.576;2024-02-23T11:30:19;44934.47;;;-143.47;76.30
35121;BME280;21297;52.008;4.576;2024-02-23T11:33:07;44906.97;;;-143.47;76.00
35121;BME280;21297;52.008;4.576;2024-02-23T11:35:53;44912.84;;;-143.47;75.97
35121;BME280;21297;52.008;4.576;2024-02-23T11:38:40;44928.56;;;-143.47;74.78
35121;BME280;21297;52.008;4.576;2024-02-23T11:41:26;44940.34;;;-143.47;76.06
35121;BME280;21297;52.008;4.576;2024-02-23T11:44:13;44905.00;;;-143.47;74.45
35121;BME280;21297;52.008;4.576;2024-02-23T11:46:59;44877.50;;;-143.47;74.73
35121;BME280;21297;52.008;4.576;2024-02-23T11:49:45;44930.53;;;-143.47;75.79
35121;BME280;21297;52.008;4.576;2024-02-23T11:52:30;44885.34;;;-143.47;75.31
35121;BME280;21297;52.008;4.576;2024-02-23T11:55:19;44889.28;;;-143.47;73.96
35121;BME280;21297;52.008;4.576;2024-02-23T11:58:08;44908.91;;;-143.47;74.05
35121;BME280;21297;52.008;4.576;2024-02-23T12:00:54;44901.06;;;-143.47;75.27
35121;BME280;21297;52.008;4.576;2024-02-23T12:03:40;44897.13;;;-143.47;76.20
35121;BME280;21297;52.008;4.576;2024-02-23T12:06:26;44912.84;;;-143.47;76.32
35121;BME280;21297;52.008;4.576;2024-02-23T12:09:15;44912.84;;;-143.47;77.41
35121;BME280;21297;52.008;4.576;2024-02-23T12:12:01;44887.31;;;-143.47;75.83
35121;BME280;21297;52.008;4.576;2024-02-23T12:14:47;44881.41;;;-143.47;74.33
35121;BME280;21297;52.008;4.576;2024-02-23T12:17:35;44881.41;;;-143.47;73.51
35121;BME280;21297;52.008;4.576;2024-02-23T12:20:21;44863.75;;;-143.47;71.33
35121;BME280;21297;52.008;4.576;2024-02-23T12:23:06;44865.69;;;-143.47;72.42
35121;BME280;21297;52.008;4.576;2024-02-23T12:25:58;44871.59;;;-143.47;73.07
35121;BME280;21297;52.008;4.576;2024-02-23T12:28:44;44869.63;;;-143.47;71.34
35121;BME280;21297;52.008;4.576;2024-02-23T12:31:31;44842.13;;;-143.47;69.51
35121;BME280;21297;52.008;4.576;2024-02-23T12:34:17;44863.75;;;-143.47;72.24
35121;BME280;21297;52.008;4.576;2024-02-23T12:37:03;44873.56;;;-143.47;70.98
35121;BME280;21297;52.008;4.576;2024-02-23T12:39:50;44848.03;;;-143.47;69.44
35121;BME280;21297;52.008;4.576;2024-02-23T12:42:36;44910.88;;;-143.47;68.83
35121;BME280;21297;52.008;4.576;2024-02-23T12:45:21;44859.81;;;-143.47;70.21
35121;BME280;21297;52.008;4.576;2024-02-23T12:48:07;44832.31;;;-143.47;69.02
35121;BME280;21297;52.008;4.576;2024-02-23T12:50:53;44850.00;;;-143.47;70.58
35121;BME280;21297;52.008;4.576;2024-02-23T12:53:39;44834.28;;;-143.47;68.36
35121;BME280;21297;52.008;4.576;2024-02-23T12:56:26;44826.41;;;-143.47;68.88
35121;BME280;21297;52.008;4.576;2024-02-23T12:59:11;44867.66;;;-143.47;69.76
35121;BME280;21297;52.008;4.576;2024-02-23T13:01:57;44848.03;;;-143.47;70.15
35121;BME280;21297;52.008;4.576;2024-02-23T13:04:42;44887.31;;;-143.47;68.66
35121;BME280;21297;52.008;4.576;2024-02-23T13:07:33;44846.06;;;-143.47;70.42
35121;BME280;21297;52.008;4.576;2024-02-23T13:10:19;44851.94;;;-143.47;67.85
35121;BME280;21297;52.008;4.576;2024-02-23T13:13:05;44822.50;;;-143.47;68.34
35121;BME280;21297;52.008;4.576;2024-02-23T13:15:51;44869.63;;;-143.47;67.60
35121;BME280;21297;52.008;4.576;2024-02-23T13:18:37;44848.03;;;-143.47;67.63
35121;BME280;21297;52.008;4.576;2024-02-23T13:21:22;44844.09;;;-143.47;69.40
35121;BME280;21297;52.008;4.576;2024-02-23T13:24:09;44869.63;;;-143.47;66.57
35121;BME280;21297;52.008;4.576;2024-02-23T13:26:55;44818.56;;;-143.47;66.51
35121;BME280;21297;52.008;4.576;2024-02-23T13:29:40;44863.75;;;-143.47;66.54
35121;BME280;21297;52.008;4.576;2024-02-23T13:32:26;44844.09;;;-143.47;67.34
35121;BME280;21297;52.008;4.576;2024-02-23T13:35:11;44838.19;;;-143.47;67.20
35121;BME280;21297;52.008;4.576;2024-02-23T13:37:59;44826.41;;;-143.47;65.93
35121;BME280;21297;52.008;4.576;2024-02-23T13:40:45;44838.19;;;-143.47;67.37
35121;BME280;21297;52.008;4.576;2024-02-23T13:43:30;44850.00;;;-143.47;67.86
35121;BME280;21297;52.008;4.576;2024-02-23T13:46:16;44844.09;;;-143.47;67.65
35121;BME280;21297;52.008;4.576;2024-02-23T13:49:08;44818.56;;;-143.47;67.37
35121;BME280;21297;52.008;4.576;2024-02-23T13:51:54;44850.00;;;-143.47;67.13
35121;BME280;21297;52.008;4.576;2024-02-23T13:54:40;44836.25;;;-143.47;67.01
35121;BME280;21297;52.008;4.576;2024-02-23T13:57:25;44863.75;;;-143.47;67.65
35121;BME280;21297;52.008;4.576;2024-02-23T14:00:11;44855.88;;;-143.47;67.16
35121;BME280;21297;52.008;4.576;2024-02-23T14:02:58;44830.34;;;-143.47;66.98
35121;BME280;21297;52.008;4.576;2024-02-23T14:05:44;44853.91;;;-143.47;67.55
35121;BME280;21297;52.008;4.576;2024-02-23T14:08:30;44840.16;;;-143.47;68.14
35121;BME280;21297;52.008;4.576;2024-02-23T14:11:16;44871.59;;;-143.47;67.45
35121;BME280;21297;52.008;4.576;2024-02-23T14:14:03;44857.84;;;-143.47;67.37